الصفحة الرئيسية
METAR-TAF:

METAR-TAF

مطار :

Broome, أستراليا

دائرة عرض: 17-57S, خط طول: 122-13E, ارتفاع: 17 متر

مراقبة الطقس الحالي

تاريخ ووقت الإصدار 46 دقيقة قبل الساعة 21:00UTC
ريح 5 عقدة من الغرب
درجة الحرارة 29°درجة مئوية
الرطوبة 79%
ضغط 1008 hPa
الرؤية 10 كم أو أكثر

METAR: YBRM 052100Z AUTO 27005KT 9999 // NCD 29/25 Q1008

زمن: 05:46 (21:46 UTC)

توقعات

تاريخ ووقت الإصدار 4ساعات و 37 دقيقة قبل الساعة 17:09UTC
التوقعات صالحة من05 الساعة 18 UTC إلى 06 الساعة 18 UTC
ريح 8 عقدة من الغرب/الجنوب الغربي
الرؤية 10 كم أو أكثر
غيوم قليلة على ارتفاع 1800 قدم
من 06 الساعة 0000 UTC
ريح 10 عقدة من الغرب
الرؤية 10 كم أو أكثر
غيوم قليلة على ارتفاع 3000 قدم
من 06 الساعة 1200 UTC
ريح 8 عقدة من الغرب
الرؤية 10 كم أو أكثر
غيوم متفرقة على ارتفاع 1500 قدم

TAF: YBRM 051709Z 0518/0618 25008KT 9999 FEW018 FM060000 28010KT 9999 FEW030 FM061200 26008KT 9999 SCT015

أرصاد الطقس والتوقعات من أكثر من 4000 مطار (تقارير الطقس للمطار METAR والتنبؤ بالطقس بالمطارTAF).

المحطات المتاحة هي النقط الصفراء والحمراء على الخريطة.

حرك المؤشر فوق النقطة لمعرفة اسم المحطة.

ثم انقر لمعرفة أرصاد وتوقعات الطقس.

لتغيير الخارطة: اضغط على الأزرار الخضراء مع رمز الصليب الأسود للتكبير. على الزر الأخضر مع شرطة للتصغير، أو على الأسهم الخضراء للخرائط المجاورة.


METAR-TAF: